Terminal Aerodrome Forecast
Issued by NWS Lake Charles, LA

Home | Current Version | Previous Version | Text Only | Print | Product List | Glossary On
Versions: 1 2 3 4 5 6 7 8 9 10 11 12 13 14 15 16 17
122
FTUS44 KLCH 050539
TAFARA
TAF
KARA 050539Z 0506/0606 02012KT P6SM VCSH OVC004
     FM051500 06010KT 4SM -SHRA BR OVC007
     FM051800 12008KT 2SM TSRA BR OVC005CB
     FM060000 VRB06KT 2SM TSRA BR OVC003CB
     FM060300 23010KT 4SM -SHRA BR OVC005=

USA.gov is the U.S. government's official web portal to all federal, state and local government web resources and services.